createdAt,value
2018-10-09T00:01:36.100Z,16.93
2018-10-09T00:04:04.383Z,17.00
2018-10-09T00:06:32.591Z,18.20
2018-10-09T00:09:00.718Z,15.53
2018-10-09T00:11:28.860Z,17.53
2018-10-09T00:13:56.998Z,16.00
2018-10-09T00:16:25.078Z,16.43
2018-10-09T00:18:53.243Z,14.30
2018-10-09T00:21:21.385Z,15.00
2018-10-09T00:23:49.503Z,16.60
2018-10-09T00:26:17.630Z,16.20
2018-10-09T00:28:45.830Z,17.00
2018-10-09T00:31:14.001Z,16.50
2018-10-09T00:33:42.169Z,17.53
2018-10-09T00:36:10.299Z,18.57
2018-10-09T00:38:38.320Z,20.17
2018-10-09T00:41:06.656Z,19.23
2018-10-09T00:43:34.876Z,16.47
2018-10-09T00:46:03.267Z,17.73
2018-10-09T00:48:31.420Z,16.60
2018-10-09T00:50:59.815Z,17.93
2018-10-09T00:53:27.918Z,15.77
2018-10-09T00:55:55.990Z,17.60
2018-10-09T00:58:24.131Z,15.70
2018-10-09T01:00:52.271Z,15.60
2018-10-09T01:03:20.411Z,16.47
2018-10-09T01:05:48.564Z,18.30
2018-10-09T01:08:16.609Z,17.13
2018-10-09T01:10:44.739Z,17.60
2018-10-09T01:13:12.916Z,16.23
2018-10-09T01:15:41.089Z,19.80
2018-10-09T01:18:09.195Z,17.63
2018-10-09T01:20:37.327Z,18.23
2018-10-09T01:23:06.309Z,19.63
2018-10-09T01:25:35.289Z,19.80
2018-10-09T01:28:03.476Z,16.77
2018-10-09T01:30:32.553Z,16.17
2018-10-09T01:33:01.348Z,16.17
2018-10-09T01:35:29.688Z,17.37
2018-10-09T01:37:58.096Z,16.80
2018-10-09T01:40:26.207Z,15.80
2018-10-09T01:42:54.459Z,17.00
2018-10-09T01:45:22.600Z,16.90
2018-10-09T01:47:50.994Z,21.87
2018-10-09T01:50:19.142Z,16.43
2018-10-09T01:52:47.236Z,17.30
2018-10-09T01:55:15.620Z,20.00
2018-10-09T01:57:44.468Z,17.00
2018-10-09T02:00:12.819Z,17.93
2018-10-09T02:02:41.298Z,21.60
2018-10-09T02:05:09.612Z,19.37
2018-10-09T02:07:37.715Z,20.27
2018-10-09T02:10:05.950Z,16.37
2018-10-09T02:12:34.202Z,18.90
2018-10-09T02:15:02.695Z,18.23
2018-10-09T02:17:31.098Z,17.80
2018-10-09T02:19:59.159Z,16.83
2018-10-09T02:22:27.246Z,19.83
2018-10-09T02:24:55.258Z,18.60
2018-10-09T02:27:23.332Z,20.60
2018-10-09T02:29:51.451Z,20.90
2018-10-09T02:32:19.635Z,18.43
2018-10-09T02:34:47.747Z,20.63
2018-10-09T02:37:15.927Z,16.97
2018-10-09T02:39:44.091Z,17.53
2018-10-09T02:42:12.243Z,18.23
2018-10-09T02:44:40.292Z,21.10
2018-10-09T02:47:08.404Z,17.10
2018-10-09T02:49:36.591Z,17.60
2018-10-09T02:52:04.812Z,20.90
2018-10-09T02:54:32.842Z,17.87
2018-10-09T02:57:01.009Z,17.43
2018-10-09T02:59:29.110Z,17.33
2018-10-09T03:01:57.169Z,19.97
2018-10-09T03:04:25.322Z,18.03
2018-10-09T03:06:53.385Z,18.53
2018-10-09T03:09:21.497Z,23.87
2018-10-09T03:11:49.645Z,24.60
2018-10-09T03:14:17.862Z,21.90
2018-10-09T03:16:45.887Z,19.20
2018-10-09T03:19:13.971Z,21.13
2018-10-09T03:21:42.021Z,19.40
2018-10-09T03:24:10.169Z,19.93
2018-10-09T03:26:38.325Z,21.53
2018-10-09T03:29:06.861Z,19.03
2018-10-09T03:31:34.992Z,19.47
2018-10-09T03:34:03.103Z,20.87
2018-10-09T03:36:31.275Z,22.33
2018-10-09T03:39:00.330Z,22.43
2018-10-09T03:41:28.580Z,20.67
2018-10-09T03:43:56.779Z,23.30
2018-10-09T03:46:25.005Z,25.13
2018-10-09T03:48:53.120Z,22.93
2018-10-09T03:51:21.297Z,22.80
2018-10-09T03:53:49.446Z,22.93
2018-10-09T03:56:17.595Z,23.67
2018-10-09T03:58:45.677Z,20.77
2018-10-09T04:01:13.843Z,22.27
2018-10-09T04:03:41.940Z,20.40
2018-10-09T04:06:10.013Z,21.80
2018-10-09T04:08:38.156Z,21.70
2018-10-09T04:11:06.381Z,20.53
2018-10-09T04:13:34.483Z,19.43
2018-10-09T04:16:02.592Z,20.67
2018-10-09T04:18:30.644Z,26.43
2018-10-09T04:20:58.793Z,21.50
2018-10-09T04:23:26.924Z,22.50
2018-10-09T04:25:55.070Z,19.80
2018-10-09T04:28:23.147Z,18.40
2018-10-09T04:30:51.340Z,19.00
2018-10-09T04:33:19.462Z,19.20
2018-10-09T04:35:47.572Z,22.00
2018-10-09T04:38:15.671Z,19.33
2018-10-09T04:40:43.799Z,19.30
2018-10-09T04:43:12.081Z,19.70
2018-10-09T04:45:40.241Z,20.30
2018-10-09T04:48:08.355Z,19.00
2018-10-09T04:50:36.495Z,19.80
2018-10-09T04:53:04.721Z,21.70
2018-10-09T04:55:32.733Z,17.43
2018-10-09T04:58:00.821Z,18.57
2018-10-09T05:00:29.007Z,19.10
2018-10-09T05:02:57.113Z,22.83
2018-10-09T05:05:25.248Z,19.87
2018-10-09T05:07:53.315Z,21.93
2018-10-09T05:10:21.467Z,23.05
2018-10-09T05:12:49.560Z,22.42
2018-10-09T05:15:17.717Z,23.17
2018-10-09T05:17:45.778Z,20.00
2018-10-09T05:20:13.895Z,26.63
2018-10-09T05:22:41.933Z,27.60
2018-10-09T05:25:10.058Z,21.60
2018-10-09T05:27:38.163Z,23.93
2018-10-09T05:30:06.352Z,24.23
2018-10-09T05:32:35.201Z,25.77
2018-10-09T05:35:03.378Z,27.33
2018-10-09T05:37:31.456Z,34.80
2018-10-09T05:39:59.492Z,36.73
2018-10-09T05:42:27.592Z,33.50
2018-10-09T05:44:55.683Z,41.80
2018-10-09T05:47:23.780Z,41.88
2018-10-09T05:49:51.951Z,33.48
2018-10-09T05:52:20.131Z,35.03
2018-10-09T05:54:48.222Z,39.60
2018-10-09T05:57:16.426Z,40.78
2018-10-09T05:59:44.547Z,37.00
2018-10-09T06:02:12.723Z,31.30
2018-10-09T06:04:40.803Z,36.10
2018-10-09T06:07:09.032Z,41.35
2018-10-09T06:09:37.168Z,37.60
2018-10-09T06:12:05.363Z,44.30
2018-10-09T06:14:34.699Z,37.23
2018-10-09T06:17:02.809Z,40.07
2018-10-09T06:19:30.856Z,36.45
2018-10-09T06:21:58.966Z,45.97
2018-10-09T06:24:27.118Z,63.73
2018-10-09T06:26:55.338Z,70.63
2018-10-09T06:29:23.506Z,72.10
2018-10-09T06:31:51.698Z,74.70
2018-10-09T06:34:20.014Z,70.10
2018-10-09T06:36:48.144Z,42.50
2018-10-09T06:39:16.334Z,37.70
2018-10-09T06:41:44.422Z,38.07
2018-10-09T06:44:12.541Z,34.43
2018-10-09T06:46:40.645Z,33.20
2018-10-09T06:49:08.827Z,30.60
2018-10-09T06:51:37.098Z,41.97
2018-10-09T06:54:05.340Z,37.33
2018-10-09T06:56:33.384Z,39.40
2018-10-09T06:59:01.668Z,36.13
2018-10-09T07:01:29.996Z,37.77
2018-10-09T07:03:58.192Z,37.40
2018-10-09T07:06:26.388Z,42.93
2018-10-09T07:08:54.538Z,45.87
2018-10-09T07:11:22.877Z,40.50
2018-10-09T07:13:50.984Z,40.63
2018-10-09T07:16:19.145Z,41.10
2018-10-09T07:18:47.233Z,36.70
2018-10-09T07:21:15.554Z,43.37
2018-10-09T07:23:43.753Z,47.30
2018-10-09T07:26:12.178Z,46.53
2018-10-09T07:28:40.424Z,46.07
2018-10-09T07:31:08.568Z,41.80
2018-10-09T07:33:36.974Z,38.00
2018-10-09T07:36:05.273Z,43.93
2018-10-09T07:38:33.454Z,36.17
2018-10-09T07:41:01.614Z,41.07
2018-10-09T07:43:29.786Z,41.03
2018-10-09T07:45:57.973Z,36.30
2018-10-09T07:48:26.208Z,38.73
2018-10-09T07:50:54.376Z,41.27
2018-10-09T07:53:22.542Z,40.30
2018-10-09T07:55:50.811Z,39.10
2018-10-09T07:58:19.070Z,38.83
2018-10-09T08:00:47.424Z,41.47
2018-10-09T08:03:15.604Z,38.43
2018-10-09T08:05:43.782Z,36.57
2018-10-09T08:08:12.025Z,39.30
2018-10-09T08:10:40.241Z,38.10
2018-10-09T08:13:08.499Z,34.63
2018-10-09T08:15:36.986Z,39.13
2018-10-09T08:18:05.649Z,37.23
2018-10-09T08:20:34.311Z,39.60
2018-10-09T08:23:02.628Z,34.03
2018-10-09T08:25:30.880Z,39.30
2018-10-09T08:27:59.179Z,37.33
2018-10-09T08:30:27.579Z,37.33
2018-10-09T08:32:55.847Z,36.53
2018-10-09T08:35:24.214Z,33.40
2018-10-09T08:37:54.575Z,33.30
2018-10-09T08:40:23.891Z,38.37
2018-10-09T08:42:53.337Z,34.10
2018-10-09T08:45:23.957Z,35.80
2018-10-09T08:47:53.418Z,37.23
2018-10-09T08:50:35.516Z,36.23
2018-10-09T08:53:07.212Z,38.40
2018-10-09T08:55:35.985Z,31.97
2018-10-09T08:58:04.158Z,30.10
2018-10-09T09:00:32.599Z,28.97
2018-10-09T09:03:00.828Z,29.80
2018-10-09T09:05:29.110Z,31.30
2018-10-09T09:07:57.346Z,33.77
2018-10-09T09:10:25.600Z,29.23
2018-10-09T09:12:53.731Z,36.07
2018-10-09T09:15:22.148Z,31.50
2018-10-09T09:17:50.391Z,33.77
2018-10-09T09:20:18.596Z,29.27
2018-10-09T09:22:47.169Z,33.43
2018-10-09T09:25:15.389Z,31.80
2018-10-09T09:27:43.716Z,32.87
2018-10-09T09:30:11.976Z,31.70
2018-10-09T09:32:40.592Z,33.73
2018-10-09T09:35:08.834Z,44.20
2018-10-09T09:37:37.105Z,33.70
2018-10-09T09:40:05.822Z,37.73
2018-10-09T09:42:34.223Z,33.10
2018-10-09T09:45:02.333Z,33.93
2018-10-09T09:47:30.672Z,33.63
2018-10-09T09:49:59.029Z,32.27
2018-10-09T09:52:27.207Z,32.43
2018-10-09T09:54:55.526Z,31.90
2018-10-09T09:57:23.760Z,34.50
2018-10-09T09:59:52.094Z,31.57
2018-10-09T10:02:20.573Z,29.10
2018-10-09T10:04:48.796Z,27.37
2018-10-09T10:07:17.612Z,32.87
2018-10-09T10:09:45.816Z,36.30
2018-10-09T10:12:14.010Z,28.53
2018-10-09T10:14:43.184Z,29.37
2018-10-09T10:17:12.020Z,30.63
2018-10-09T10:19:41.293Z,30.50
2018-10-09T10:22:09.542Z,33.13
2018-10-09T10:24:37.776Z,30.40
2018-10-09T10:27:05.956Z,32.33
2018-10-09T10:29:34.124Z,29.93
2018-10-09T10:32:02.292Z,29.50
2018-10-09T10:34:30.466Z,26.93
2018-10-09T10:36:58.726Z,30.73
2018-10-09T10:39:26.918Z,30.57
2018-10-09T10:41:55.100Z,32.60
2018-10-09T10:44:23.555Z,31.10
2018-10-09T10:46:52.083Z,34.60
2018-10-09T10:49:21.324Z,32.97
2018-10-09T10:51:49.597Z,33.20
2018-10-09T10:54:18.422Z,36.73
2018-10-09T10:56:46.801Z,28.80
2018-10-09T10:59:15.139Z,29.80
2018-10-09T11:01:43.626Z,27.00
2018-10-09T11:04:11.828Z,29.37
2018-10-09T11:06:40.242Z,30.20
2018-10-09T11:09:10.284Z,35.37
2018-10-09T11:11:38.855Z,25.67
2018-10-09T11:14:07.437Z,31.63
2018-10-09T11:16:35.773Z,26.00
2018-10-09T11:19:03.943Z,27.07
2018-10-09T11:21:32.310Z,25.67
2018-10-09T11:24:00.707Z,29.53
2018-10-09T11:26:29.029Z,38.43
2018-10-09T11:28:57.469Z,29.13
2018-10-09T11:31:25.716Z,25.60
2018-10-09T11:33:53.995Z,26.60
2018-10-09T11:36:22.276Z,29.27
2018-10-09T11:38:50.536Z,25.93
2018-10-09T11:41:18.662Z,29.10
2018-10-09T11:43:46.933Z,44.03
2018-10-09T11:46:15.186Z,37.83
2018-10-09T11:48:43.479Z,26.70
2018-10-09T11:51:11.739Z,40.17
2018-10-09T11:53:40.143Z,27.97
2018-10-09T11:56:08.413Z,27.20
2018-10-09T11:58:36.735Z,31.27
2018-10-09T12:01:07.559Z,31.63
2018-10-09T12:03:36.105Z,30.17
2018-10-09T12:06:04.701Z,35.37
2018-10-09T12:08:33.021Z,33.37
2018-10-09T12:11:01.863Z,29.03
2018-10-09T12:13:30.195Z,31.03
2018-10-09T12:15:58.438Z,27.30
2018-10-09T12:18:26.813Z,28.63
2018-10-09T12:20:55.095Z,26.70
2018-10-09T12:23:23.422Z,29.40
2018-10-09T12:25:51.677Z,29.43
2018-10-09T12:28:19.891Z,25.00
2018-10-09T12:30:48.327Z,29.07
2018-10-09T12:33:16.548Z,27.07
2018-10-09T12:35:44.811Z,26.90
2018-10-09T12:38:13.224Z,26.63
2018-10-09T12:40:41.330Z,25.97
2018-10-09T12:43:09.654Z,29.07
2018-10-09T12:45:37.887Z,29.50
2018-10-09T12:48:06.360Z,28.17
2018-10-09T12:50:34.655Z,28.50
2018-10-09T12:53:03.026Z,28.57
2018-10-09T12:55:31.188Z,30.63
2018-10-09T12:57:59.506Z,29.40
2018-10-09T13:00:27.739Z,27.10
2018-10-09T13:02:55.933Z,28.87
2018-10-09T13:05:24.180Z,27.87
2018-10-09T13:07:52.582Z,27.90
2018-10-09T13:10:20.699Z,26.60
2018-10-09T13:12:48.912Z,29.43
2018-10-09T13:15:17.108Z,28.40
2018-10-09T13:17:45.428Z,27.13
2018-10-09T13:20:13.510Z,27.57
2018-10-09T13:22:41.707Z,27.50
2018-10-09T13:25:09.878Z,29.30
2018-10-09T13:27:38.132Z,29.50
2018-10-09T13:30:07.035Z,26.30
2018-10-09T13:32:35.201Z,27.43
2018-10-09T13:35:03.476Z,26.27
2018-10-09T13:37:31.710Z,30.57
2018-10-09T13:39:59.933Z,26.37
2018-10-09T13:42:28.182Z,26.50
2018-10-09T13:44:56.447Z,25.20
2018-10-09T13:47:24.616Z,25.50
2018-10-09T13:49:52.859Z,26.70
2018-10-09T13:52:21.149Z,26.27
2018-10-09T13:54:49.587Z,25.17
2018-10-09T13:57:18.037Z,24.13
2018-10-09T13:59:46.497Z,27.00
2018-10-09T14:02:14.772Z,27.17
2018-10-09T14:04:43.057Z,26.43
2018-10-09T14:07:11.320Z,24.27
2018-10-09T14:09:39.621Z,26.10
2018-10-09T14:12:08.007Z,26.50
2018-10-09T14:14:36.378Z,25.47
2018-10-09T14:17:04.714Z,26.20
2018-10-09T14:19:32.965Z,24.47
2018-10-09T14:22:01.305Z,25.90
2018-10-09T14:24:29.670Z,24.20
2018-10-09T14:26:57.873Z,24.13
2018-10-09T14:29:26.142Z,23.20
2018-10-09T14:31:54.410Z,22.80
2018-10-09T14:34:22.760Z,21.90
2018-10-09T14:36:51.125Z,22.33
2018-10-09T14:39:19.458Z,21.20
2018-10-09T14:41:48.264Z,22.33
2018-10-09T14:44:16.492Z,22.50
2018-10-09T14:46:44.810Z,21.13
2018-10-09T14:49:13.162Z,23.23
2018-10-09T14:51:41.498Z,22.07
2018-10-09T14:54:09.772Z,21.57
2018-10-09T14:56:38.153Z,21.97
2018-10-09T14:59:06.518Z,21.30
2018-10-09T15:01:34.949Z,21.57
2018-10-09T15:04:03.189Z,21.73
2018-10-09T15:06:31.448Z,20.30
2018-10-09T15:08:59.726Z,19.53
2018-10-09T15:11:27.993Z,22.97
2018-10-09T15:13:56.274Z,20.00
2018-10-09T15:16:24.681Z,20.10
2018-10-09T15:18:52.829Z,20.53
2018-10-09T15:21:21.042Z,19.90
2018-10-09T15:23:49.262Z,19.63
2018-10-09T15:26:17.588Z,20.47
2018-10-09T15:28:45.847Z,20.27
2018-10-09T15:31:14.126Z,18.47
2018-10-09T15:33:42.447Z,19.13
2018-10-09T15:36:10.799Z,20.73
2018-10-09T15:38:39.189Z,20.33
2018-10-09T15:41:07.445Z,20.10
2018-10-09T15:43:35.687Z,18.43
2018-10-09T15:46:04.622Z,19.43
2018-10-09T15:48:32.865Z,18.33
2018-10-09T15:51:01.190Z,17.43
2018-10-09T15:53:29.439Z,18.30
2018-10-09T15:55:57.712Z,19.07
2018-10-09T15:58:26.004Z,18.43
2018-10-09T16:00:54.181Z,17.00
2018-10-09T16:03:22.462Z,20.67
2018-10-09T16:05:50.778Z,22.20
2018-10-09T16:08:19.146Z,21.20
2018-10-09T16:10:47.573Z,19.50
2018-10-09T16:13:15.860Z,20.00
2018-10-09T16:15:44.169Z,19.30
2018-10-09T16:18:12.487Z,19.77
2018-10-09T16:20:41.830Z,19.60
2018-10-09T16:23:10.140Z,19.20
2018-10-09T16:25:38.429Z,18.57
2018-10-09T16:28:07.330Z,20.10
2018-10-09T16:30:35.612Z,21.20
2018-10-09T16:33:03.979Z,25.10
2018-10-09T16:35:32.227Z,24.00
2018-10-09T16:38:00.696Z,22.53
2018-10-09T16:40:29.072Z,25.93
2018-10-09T16:42:57.449Z,23.97
2018-10-09T16:45:25.767Z,31.53
2018-10-09T16:47:54.223Z,23.40
2018-10-09T16:50:22.592Z,22.93
2018-10-09T16:52:50.877Z,22.20
2018-10-09T16:55:19.326Z,24.97
2018-10-09T16:57:47.741Z,23.40
2018-10-09T17:00:16.364Z,22.60
2018-10-09T17:02:44.701Z,23.27
2018-10-09T17:05:13.101Z,25.27
2018-10-09T17:07:41.499Z,24.47
2018-10-09T17:10:09.900Z,26.50
2018-10-09T17:12:38.232Z,24.33
2018-10-09T17:15:06.633Z,24.60
2018-10-09T17:17:35.265Z,24.23
2018-10-09T17:20:04.208Z,23.60
2018-10-09T17:22:32.511Z,22.80
2018-10-09T17:25:00.955Z,26.80
2018-10-09T17:27:29.411Z,28.00
2018-10-09T17:29:57.892Z,25.60
2018-10-09T17:32:26.342Z,28.10
2018-10-09T17:34:54.644Z,24.90
2018-10-09T17:37:23.069Z,24.60
2018-10-09T17:39:51.670Z,25.43
2018-10-09T17:42:19.999Z,26.47
2018-10-09T17:44:48.395Z,24.67
2018-10-09T17:47:16.863Z,27.40
2018-10-09T17:49:45.157Z,25.77
2018-10-09T17:52:13.643Z,25.70
2018-10-09T17:54:42.345Z,26.50
2018-10-09T17:57:10.880Z,25.10
2018-10-09T17:59:39.168Z,26.90
2018-10-09T18:02:07.492Z,27.00
2018-10-09T18:04:35.761Z,25.57
2018-10-09T18:07:04.366Z,27.00
2018-10-09T18:09:32.690Z,25.13
2018-10-09T18:12:01.035Z,26.37
2018-10-09T18:14:29.349Z,26.30
2018-10-09T18:16:57.910Z,25.87
2018-10-09T18:19:26.390Z,26.40
2018-10-09T18:21:54.693Z,27.53
2018-10-09T18:24:22.984Z,27.20
2018-10-09T18:26:51.341Z,28.30
2018-10-09T18:29:19.878Z,26.23
2018-10-09T18:31:48.255Z,27.57
2018-10-09T18:34:16.702Z,29.23
2018-10-09T18:36:45.111Z,26.50
2018-10-09T18:39:15.685Z,29.03
2018-10-09T18:41:45.032Z,30.10
2018-10-09T18:44:13.868Z,29.93
2018-10-09T18:46:42.249Z,29.60
2018-10-09T18:49:10.700Z,27.13
2018-10-09T18:51:39.065Z,30.33
2018-10-09T18:54:07.674Z,28.90
2018-10-09T18:56:36.052Z,43.73
2018-10-09T18:59:04.444Z,27.00
2018-10-09T19:01:32.801Z,28.50
2018-10-09T19:04:01.597Z,29.80
2018-10-09T19:06:29.875Z,28.10
2018-10-09T19:08:58.255Z,28.73
2018-10-09T19:11:27.242Z,28.53
2018-10-09T19:13:56.583Z,27.80
2018-10-09T19:16:25.348Z,27.43
2018-10-09T19:18:53.921Z,32.53
2018-10-09T19:21:23.320Z,26.77
2018-10-09T19:23:53.300Z,27.00
2018-10-09T19:26:23.063Z,26.13
2018-10-09T19:28:51.649Z,26.60
2018-10-09T19:31:20.007Z,25.67
2018-10-09T19:33:48.587Z,29.20
2018-10-09T19:36:16.877Z,26.80
2018-10-09T19:38:45.175Z,28.00
2018-10-09T19:41:13.717Z,28.80
2018-10-09T19:43:42.098Z,27.97
2018-10-09T19:46:10.361Z,27.70
2018-10-09T19:48:38.983Z,26.53
2018-10-09T19:51:07.591Z,28.10
2018-10-09T19:53:35.757Z,25.77
2018-10-09T19:56:04.224Z,26.10
2018-10-09T19:58:32.613Z,28.00
2018-10-09T20:01:01.022Z,26.83
2018-10-09T20:03:29.758Z,26.27
2018-10-09T20:05:58.152Z,27.27
2018-10-09T20:08:26.483Z,26.53
2018-10-09T20:10:55.058Z,27.77
2018-10-09T20:13:23.376Z,26.47
2018-10-09T20:15:51.716Z,28.77
2018-10-09T20:18:20.067Z,27.47
2018-10-09T20:20:48.380Z,27.07
2018-10-09T20:23:17.130Z,34.10
2018-10-09T20:25:45.427Z,29.57
2018-10-09T20:28:13.810Z,26.70
2018-10-09T20:30:42.611Z,28.67
2018-10-09T20:33:11.356Z,33.13
2018-10-09T20:35:40.627Z,26.60
2018-10-09T20:38:10.683Z,26.53
2018-10-09T20:40:38.990Z,24.67
2018-10-09T20:43:08.269Z,26.80
2018-10-09T20:45:36.831Z,27.57
2018-10-09T20:48:05.278Z,27.10
2018-10-09T20:50:33.551Z,26.73
2018-10-09T20:53:01.897Z,28.40
2018-10-09T20:55:34.138Z,27.60
2018-10-09T20:58:02.661Z,26.10
2018-10-09T21:00:31.014Z,28.40
2018-10-09T21:02:59.441Z,28.83
2018-10-09T21:05:28.761Z,27.13
2018-10-09T21:07:57.954Z,27.90
2018-10-09T21:10:26.268Z,30.33
2018-10-09T21:12:54.589Z,28.37
2018-10-09T21:15:24.214Z,29.10
2018-10-09T21:17:53.147Z,28.80
2018-10-09T21:20:21.873Z,28.70
2018-10-09T21:22:51.479Z,28.70
2018-10-09T21:25:22.184Z,26.27
2018-10-09T21:27:50.933Z,25.63
2018-10-09T21:30:19.275Z,23.97
2018-10-09T21:32:47.524Z,27.43
2018-10-09T21:35:15.737Z,25.47
2018-10-09T21:37:43.991Z,26.17
2018-10-09T21:40:12.398Z,25.23
2018-10-09T21:42:40.546Z,27.23
2018-10-09T21:45:08.833Z,26.80
2018-10-09T21:47:40.896Z,26.63
2018-10-09T21:50:09.177Z,24.93
2018-10-09T21:52:37.413Z,23.77
2018-10-09T21:55:05.648Z,25.73
2018-10-09T21:57:33.985Z,28.87
2018-10-09T22:00:02.462Z,29.00
2018-10-09T22:02:30.670Z,27.80
2018-10-09T22:04:59.106Z,27.97
2018-10-09T22:07:27.524Z,36.80
2018-10-09T22:09:55.697Z,32.13
2018-10-09T22:12:23.855Z,28.53
2018-10-09T22:14:52.258Z,28.23
2018-10-09T22:17:21.371Z,27.23
2018-10-09T22:19:49.768Z,28.23
2018-10-09T22:22:17.946Z,28.10
2018-10-09T22:24:46.155Z,28.37
2018-10-09T22:27:14.358Z,27.73
2018-10-09T22:29:42.562Z,32.03
2018-10-09T22:32:11.015Z,34.30
2018-10-09T22:34:39.415Z,29.23
2018-10-09T22:37:07.649Z,27.37
2018-10-09T22:39:35.874Z,30.27
2018-10-09T22:42:04.071Z,29.70
2018-10-09T22:44:32.330Z,30.43
2018-10-09T22:47:00.521Z,29.17
2018-10-09T22:49:28.933Z,28.20
2018-10-09T22:51:57.157Z,29.57
2018-10-09T22:54:25.512Z,35.90
2018-10-09T22:56:53.866Z,31.57
2018-10-09T22:59:22.080Z,29.60
2018-10-09T23:01:50.340Z,28.33
2018-10-09T23:04:18.468Z,32.13
2018-10-09T23:06:46.870Z,29.93
2018-10-09T23:09:15.109Z,30.50
2018-10-09T23:11:43.422Z,27.40
2018-10-09T23:14:12.228Z,29.80
2018-10-09T23:16:40.284Z,32.50
2018-10-09T23:19:08.441Z,31.20
2018-10-09T23:21:36.549Z,30.67
2018-10-09T23:24:04.645Z,28.73
2018-10-09T23:26:32.724Z,29.30
2018-10-09T23:29:00.867Z,30.33
2018-10-09T23:31:28.961Z,30.60
2018-10-09T23:33:57.016Z,29.27
2018-10-09T23:36:25.178Z,28.50
2018-10-09T23:38:53.234Z,31.40
2018-10-09T23:41:21.413Z,27.07
2018-10-09T23:43:49.483Z,28.80
2018-10-09T23:46:17.579Z,28.37
2018-10-09T23:48:45.674Z,29.13
2018-10-09T23:51:13.741Z,29.10
2018-10-09T23:53:41.812Z,31.40
2018-10-09T23:56:09.990Z,31.80
2018-10-09T23:58:38.032Z,32.10
